createdAt,value
2023-02-26T00:00:42.413Z,2.60
2023-02-26T00:03:10.960Z,2.50
2023-02-26T00:05:39.324Z,2.80
2023-02-26T00:08:08.993Z,2.53
2023-02-26T00:10:37.748Z,2.43
2023-02-26T00:13:06.686Z,2.33
2023-02-26T00:15:35.758Z,1.90
2023-02-26T00:18:08.620Z,2.90
2023-02-26T00:20:38.311Z,2.20
2023-02-26T00:23:10.487Z,2.20
2023-02-26T00:25:38.970Z,2.00
2023-02-26T00:28:07.935Z,2.20
2023-02-26T00:30:36.942Z,2.20
2023-02-26T00:33:06.481Z,2.53
2023-02-26T00:35:35.793Z,1.57
2023-02-26T00:38:06.705Z,1.97
2023-02-26T00:40:50.975Z,2.00
2023-02-26T00:43:22.794Z,1.70
2023-02-26T00:45:58.593Z,1.90
2023-02-26T00:48:39.250Z,1.90
2023-02-26T00:51:14.577Z,1.87
2023-02-26T00:53:48.454Z,1.50
2023-02-26T00:56:18.079Z,1.57
2023-02-26T00:58:46.452Z,1.30
2023-02-26T01:01:14.960Z,1.30
2023-02-26T01:03:43.839Z,1.60
2023-02-26T01:06:14.440Z,1.60
2023-02-26T01:08:49.743Z,1.73
2023-02-26T01:11:20.257Z,1.53
2023-02-26T01:13:49.106Z,1.33
2023-02-26T01:16:27.553Z,1.40
2023-02-26T01:19:05.044Z,1.23
2023-02-26T01:21:39.674Z,1.80
2023-02-26T01:24:13.129Z,1.40
2023-02-26T01:26:43.556Z,1.30
2023-02-26T01:29:12.145Z,1.70
2023-02-26T01:31:50.863Z,1.23
2023-02-26T01:34:23.025Z,1.80
2023-02-26T01:36:57.164Z,1.40
2023-02-26T01:39:33.269Z,1.33
2023-02-26T01:42:11.201Z,1.47
2023-02-26T01:44:46.136Z,1.67
2023-02-26T01:47:21.025Z,1.43
2023-02-26T01:49:49.878Z,1.30
2023-02-26T01:53:06.699Z,1.70
2023-02-26T01:55:35.159Z,1.50
2023-02-26T01:58:06.075Z,1.43
2023-02-26T02:00:34.533Z,1.57
2023-02-26T02:03:03.323Z,1.27
2023-02-26T02:05:39.709Z,1.30
2023-02-26T02:08:08.138Z,1.37
2023-02-26T02:10:36.656Z,1.33
2023-02-26T02:13:18.225Z,1.37
2023-02-26T02:15:52.220Z,1.50
2023-02-26T02:18:28.272Z,1.73
2023-02-26T02:21:23.258Z,2.10
2023-02-26T02:23:57.140Z,1.50
2023-02-26T02:26:53.397Z,1.80
2023-02-26T02:29:55.984Z,1.30
2023-02-26T02:32:32.293Z,1.37
2023-02-26T02:35:08.360Z,1.33
2023-02-26T02:37:42.037Z,1.60
2023-02-26T02:40:15.301Z,1.50
2023-02-26T02:42:47.200Z,1.23
2023-02-26T02:45:20.875Z,1.40
2023-02-26T02:47:54.740Z,1.27
2023-02-26T02:50:29.088Z,1.70
2023-02-26T02:53:01.725Z,1.57
2023-02-26T02:55:34.636Z,1.70
2023-02-26T02:58:10.114Z,1.23
2023-02-26T03:00:42.632Z,1.43
2023-02-26T03:03:19.197Z,1.77
2023-02-26T03:05:49.181Z,1.40
2023-02-26T03:08:24.597Z,1.87
2023-02-26T03:10:52.896Z,1.20
2023-02-26T03:13:24.092Z,1.37
2023-02-26T03:16:01.292Z,1.47
2023-02-26T03:18:41.907Z,1.73
2023-02-26T03:21:19.026Z,1.40
2023-02-26T03:23:54.557Z,1.60
2023-02-26T03:26:30.899Z,1.27
2023-02-26T03:29:06.382Z,1.67
2023-02-26T03:31:38.568Z,1.30
2023-02-26T03:34:14.435Z,1.83
2023-02-26T03:36:47.560Z,1.63
2023-02-26T03:39:23.637Z,1.80
2023-02-26T03:41:56.516Z,1.67
2023-02-26T03:44:31.008Z,1.67
2023-02-26T03:47:04.473Z,1.40
2023-02-26T03:49:37.413Z,1.50
2023-02-26T03:52:06.772Z,1.73
2023-02-26T03:54:39.395Z,1.90
2023-02-26T03:57:07.574Z,1.70
2023-02-26T03:59:36.593Z,1.80
2023-02-26T04:02:08.225Z,1.67
2023-02-26T04:04:43.373Z,1.60
2023-02-26T04:07:13.131Z,1.60
2023-02-26T04:09:42.749Z,1.87
2023-02-26T04:12:11.387Z,2.03
2023-02-26T04:14:39.541Z,1.70
2023-02-26T04:17:08.016Z,1.60
2023-02-26T04:19:37.450Z,1.63
2023-02-26T04:22:05.628Z,1.90
2023-02-26T04:24:33.690Z,1.67
2023-02-26T04:27:01.769Z,1.80
2023-02-26T04:29:30.046Z,1.43
2023-02-26T04:31:58.220Z,2.00
2023-02-26T04:34:26.634Z,1.93
2023-02-26T04:36:56.367Z,1.80
2023-02-26T04:39:24.589Z,1.90
2023-02-26T04:41:52.720Z,1.93
2023-02-26T04:44:20.836Z,2.73
2023-02-26T04:46:48.933Z,2.07
2023-02-26T04:49:17.206Z,2.10
2023-02-26T04:51:45.307Z,1.80
2023-02-26T04:54:14.899Z,1.90
2023-02-26T04:56:43.178Z,2.07
2023-02-26T04:59:11.341Z,2.73
2023-02-26T05:01:39.564Z,2.20
2023-02-26T05:04:08.104Z,2.10
2023-02-26T05:06:36.333Z,1.97
2023-02-26T05:09:04.577Z,1.83
2023-02-26T05:11:34.146Z,1.90
2023-02-26T05:14:02.351Z,2.40
2023-02-26T05:16:30.749Z,1.90
2023-02-26T05:18:58.923Z,2.00
2023-02-26T05:21:27.292Z,2.53
2023-02-26T05:23:55.359Z,2.10
2023-02-26T05:26:23.735Z,2.33
2023-02-26T05:28:53.865Z,2.03
2023-02-26T05:31:22.052Z,2.03
2023-02-26T05:33:50.071Z,2.00
2023-02-26T05:36:18.252Z,2.27
2023-02-26T05:38:46.359Z,1.90
2023-02-26T05:41:14.484Z,1.70
2023-02-26T05:43:42.796Z,2.37
2023-02-26T05:46:12.504Z,1.93
2023-02-26T05:48:40.648Z,2.33
2023-02-26T05:51:10.569Z,1.77
2023-02-26T05:53:38.846Z,1.77
2023-02-26T05:56:13.148Z,1.77
2023-02-26T05:58:44.774Z,1.67
2023-02-26T06:01:14.578Z,2.10
2023-02-26T06:03:44.273Z,2.20
2023-02-26T06:06:12.614Z,2.10
2023-02-26T06:08:41.016Z,2.00
2023-02-26T06:11:09.253Z,2.67
2023-02-26T06:13:37.420Z,2.13
2023-02-26T06:16:06.136Z,2.20
2023-02-26T06:18:35.605Z,2.20
2023-02-26T06:21:04.037Z,2.20
2023-02-26T06:23:32.688Z,2.20
2023-02-26T06:26:01.777Z,2.00
2023-02-26T06:28:37.007Z,2.10
2023-02-26T06:31:13.250Z,1.80
2023-02-26T06:33:43.040Z,2.13
2023-02-26T06:36:11.236Z,1.90
2023-02-26T06:38:43.304Z,2.30
2023-02-26T06:41:13.724Z,2.10
2023-02-26T06:43:43.411Z,2.10
2023-02-26T06:46:11.583Z,2.67
2023-02-26T06:48:41.110Z,2.40
2023-02-26T06:51:10.986Z,2.37
2023-02-26T06:53:39.089Z,2.53
2023-02-26T06:56:07.928Z,2.10
2023-02-26T06:58:37.218Z,2.10
2023-02-26T07:01:06.139Z,2.80
2023-02-26T07:03:34.287Z,2.97
2023-02-26T07:06:23.677Z,1.87
2023-02-26T07:08:51.951Z,2.00
2023-02-26T07:11:20.308Z,2.30
2023-02-26T07:13:48.436Z,2.70
2023-02-26T07:16:16.586Z,3.03
2023-02-26T07:18:44.793Z,2.10
2023-02-26T07:21:12.869Z,2.23
2023-02-26T07:23:41.025Z,2.80
2023-02-26T07:26:10.566Z,2.03
2023-02-26T07:28:42.450Z,2.83
2023-02-26T07:31:14.698Z,2.10
2023-02-26T07:33:42.977Z,2.77
2023-02-26T07:36:12.452Z,2.40
2023-02-26T07:38:40.652Z,2.27
2023-02-26T07:41:10.136Z,2.73
2023-02-26T07:43:44.739Z,2.23
2023-02-26T07:46:19.234Z,1.93
2023-02-26T07:48:48.345Z,2.37
2023-02-26T07:51:19.149Z,1.80
2023-02-26T07:53:50.313Z,1.90
2023-02-26T07:56:19.909Z,1.93
2023-02-26T07:58:48.014Z,2.13
2023-02-26T08:01:16.572Z,1.67
2023-02-26T08:03:44.721Z,2.07
2023-02-26T08:06:12.753Z,1.97
2023-02-26T08:08:41.289Z,1.90
2023-02-26T08:11:09.384Z,2.10
2023-02-26T08:13:38.882Z,2.37
2023-02-26T08:16:07.151Z,2.03
2023-02-26T08:18:35.468Z,1.77
2023-02-26T08:21:03.527Z,1.43
2023-02-26T08:23:32.728Z,1.60
2023-02-26T08:26:02.616Z,1.73
2023-02-26T08:28:30.864Z,2.10
2023-02-26T08:31:00.971Z,1.80
2023-02-26T08:33:30.336Z,2.23
2023-02-26T08:35:59.116Z,2.17
2023-02-26T08:38:29.303Z,1.80
2023-02-26T08:40:58.515Z,1.70
2023-02-26T08:43:26.965Z,1.80
2023-02-26T08:45:55.956Z,1.70
2023-02-26T08:48:29.161Z,2.30
2023-02-26T08:50:58.256Z,1.60
2023-02-26T08:53:26.946Z,1.50
2023-02-26T08:56:01.413Z,1.50
2023-02-26T08:58:32.148Z,1.53
2023-02-26T09:01:00.910Z,1.60
2023-02-26T09:03:37.825Z,1.70
2023-02-26T09:06:06.819Z,1.47
2023-02-26T09:08:35.466Z,1.60
2023-02-26T09:11:07.224Z,2.00
2023-02-26T09:13:35.951Z,1.50
2023-02-26T09:16:04.693Z,1.53
2023-02-26T09:18:35.645Z,1.47
2023-02-26T09:21:26.192Z,1.50
2023-02-26T09:23:55.874Z,1.60
2023-02-26T09:26:24.798Z,1.43
2023-02-26T09:28:53.763Z,1.53
2023-02-26T09:31:23.639Z,1.80
2023-02-26T09:33:53.470Z,1.60
2023-02-26T09:36:32.225Z,1.60
2023-02-26T09:39:04.512Z,1.40
2023-02-26T09:41:42.205Z,1.77
2023-02-26T09:44:21.727Z,1.10
2023-02-26T09:47:00.286Z,1.60
2023-02-26T09:49:53.361Z,1.20
2023-02-26T09:52:27.872Z,1.30
2023-02-26T09:55:00.513Z,1.20
2023-02-26T09:57:32.370Z,2.00
2023-02-26T10:00:06.353Z,1.17
2023-02-26T10:02:54.804Z,1.47
2023-02-26T10:05:31.730Z,1.40
2023-02-26T10:08:03.327Z,1.50
2023-02-26T10:10:41.960Z,1.37
2023-02-26T10:13:24.357Z,1.80
2023-02-26T10:15:59.516Z,1.47
2023-02-26T10:18:35.700Z,1.23
2023-02-26T10:21:13.097Z,1.00
2023-02-26T10:23:50.372Z,1.33
2023-02-26T10:26:24.836Z,1.30
2023-02-26T10:29:04.344Z,0.90
2023-02-26T10:31:42.436Z,1.10
2023-02-26T10:34:26.923Z,0.90
2023-02-26T10:37:03.877Z,1.20
2023-02-26T10:39:36.617Z,1.17
2023-02-26T10:42:12.597Z,1.10
2023-02-26T10:44:49.465Z,1.30
2023-02-26T10:47:27.942Z,1.30
2023-02-26T10:49:59.118Z,1.10
2023-02-26T10:52:36.919Z,1.30
2023-02-26T10:55:34.635Z,1.30
2023-02-26T10:58:21.410Z,0.97
2023-02-26T11:00:54.233Z,1.00
2023-02-26T11:03:28.707Z,1.40
2023-02-26T11:05:56.887Z,1.23
2023-02-26T11:08:31.710Z,1.00
2023-02-26T11:11:02.283Z,1.10
2023-02-26T11:13:32.676Z,1.20
2023-02-26T11:16:07.269Z,1.13
2023-02-26T11:18:50.170Z,0.97
2023-02-26T11:21:20.602Z,1.03
2023-02-26T11:23:51.550Z,1.03
2023-02-26T11:26:22.319Z,5.73
2023-02-26T11:28:54.954Z,1.23
2023-02-26T11:31:25.796Z,1.27
2023-02-26T11:33:56.879Z,1.30
2023-02-26T11:36:30.036Z,1.00
2023-02-26T11:45:36.410Z,1.17
2023-02-26T11:48:23.410Z,1.20
2023-02-26T11:51:03.320Z,1.07
2023-02-26T11:53:40.744Z,1.00
2023-02-26T11:56:14.908Z,0.83
2023-02-26T11:58:47.166Z,1.27
2023-02-26T12:01:17.844Z,1.10
2023-02-26T12:03:51.162Z,0.90
2023-02-26T12:06:24.885Z,1.10
2023-02-26T12:08:54.008Z,1.00
2023-02-26T12:11:40.394Z,1.53
2023-02-26T12:14:21.241Z,1.00
2023-02-26T12:17:03.542Z,2.13
2023-02-26T12:19:43.308Z,1.70
2023-02-26T12:22:39.309Z,1.60
2023-02-26T12:25:29.101Z,1.10
2023-02-26T12:28:12.626Z,1.40
2023-02-26T12:30:54.166Z,1.17
2023-02-26T12:33:32.600Z,1.00
2023-02-26T12:36:17.733Z,1.20
2023-02-26T12:38:59.043Z,0.90
2023-02-26T12:41:56.888Z,1.13
2023-02-26T12:45:03.948Z,1.60
2023-02-26T12:47:47.655Z,1.50
2023-02-26T12:50:30.099Z,1.40
2023-02-26T12:53:15.869Z,1.43
2023-02-26T12:55:53.458Z,1.10
2023-02-26T12:58:44.395Z,1.30
2023-02-26T13:01:34.207Z,1.70
2023-02-26T13:04:37.138Z,1.20
2023-02-26T13:07:18.885Z,1.30
2023-02-26T13:09:56.685Z,1.00
2023-02-26T13:12:37.747Z,1.30
2023-02-26T13:15:30.344Z,1.70
2023-02-26T13:18:13.079Z,1.47
2023-02-26T13:20:55.780Z,1.57
2023-02-26T13:23:31.262Z,1.30
2023-02-26T13:26:04.119Z,1.17
2023-02-26T13:28:41.133Z,1.40
2023-02-26T13:31:13.851Z,1.47
2023-02-26T13:33:45.299Z,1.10
2023-02-26T13:36:13.737Z,1.03
2023-02-26T13:39:05.684Z,1.20
2023-02-26T13:41:56.649Z,1.10
2023-02-26T13:44:33.438Z,1.07
2023-02-26T13:47:42.963Z,1.30
2023-02-26T13:50:39.004Z,1.20
2023-02-26T13:53:48.532Z,2.03
2023-02-26T14:00:05.085Z,1.10
2023-02-26T14:02:49.668Z,1.47
2023-02-26T14:05:54.830Z,1.03
2023-02-26T14:08:53.411Z,1.23
2023-02-26T14:11:46.465Z,1.30
2023-02-26T14:14:28.191Z,1.17
2023-02-26T14:17:20.998Z,1.13
2023-02-26T14:20:18.090Z,1.40
2023-02-26T14:22:52.952Z,1.13
2023-02-26T14:31:18.376Z,1.43
2023-02-26T14:33:58.416Z,1.40
2023-02-26T14:37:28.437Z,1.43
2023-02-26T14:40:24.715Z,1.17
2023-02-26T14:43:22.399Z,1.20
2023-02-26T14:45:52.084Z,0.97
2023-02-26T14:48:29.481Z,0.90
2023-02-26T14:51:11.891Z,1.00
2023-02-26T15:00:24.140Z,1.70
2023-02-26T15:03:10.096Z,1.60
2023-02-26T15:05:48.735Z,1.40
2023-02-26T15:08:33.049Z,1.70
2023-02-26T15:11:36.670Z,1.57
2023-02-26T15:14:39.536Z,1.20
2023-02-26T15:17:29.320Z,1.83
2023-02-26T15:20:11.622Z,1.30
2023-02-26T15:23:06.486Z,1.20
2023-02-26T15:28:13.266Z,1.00
2023-02-26T15:30:44.496Z,1.10
2023-02-26T15:33:18.320Z,1.50
2023-02-26T15:35:46.527Z,1.57
2023-02-26T15:38:37.751Z,1.10
2023-02-26T15:41:11.032Z,1.00
2023-02-26T15:43:39.514Z,1.20
2023-02-26T15:46:10.401Z,1.00
2023-02-26T15:48:44.848Z,1.00
2023-02-26T15:51:15.716Z,1.47
2023-02-26T15:53:46.847Z,1.53
2023-02-26T15:56:19.900Z,1.07
2023-02-26T15:58:53.185Z,1.20
2023-02-26T16:01:24.770Z,1.20
2023-02-26T16:03:55.347Z,1.00
2023-02-26T16:06:29.471Z,1.40
2023-02-26T16:08:58.197Z,1.30
2023-02-26T16:18:35.029Z,1.77
2023-02-26T16:21:10.271Z,1.30
2023-02-26T16:23:45.797Z,1.40
2023-02-26T16:26:18.795Z,4.77
2023-02-26T16:28:51.631Z,1.10
2023-02-26T16:31:23.346Z,1.23
2023-02-26T16:33:58.957Z,1.20
2023-02-26T16:36:31.110Z,1.43
2023-02-26T16:39:16.399Z,1.03
2023-02-26T16:41:56.313Z,1.33
2023-02-26T16:45:05.242Z,1.17
2023-02-26T16:47:36.685Z,2.03
2023-02-26T16:50:16.557Z,1.40
2023-02-26T16:52:48.446Z,1.40
2023-02-26T16:55:18.808Z,1.70
2023-02-26T16:57:53.669Z,1.10
2023-02-26T17:00:33.810Z,1.00
2023-02-26T17:03:17.912Z,1.27
2023-02-26T17:05:54.604Z,1.10
2023-02-26T17:08:27.536Z,1.00
2023-02-26T17:11:01.405Z,1.03
2023-02-26T17:13:31.987Z,0.93
2023-02-26T17:16:02.586Z,1.27
2023-02-26T17:18:32.100Z,1.30
2023-02-26T17:21:14.155Z,1.10
2023-02-26T17:24:02.897Z,2.50
2023-02-26T17:26:31.018Z,1.60
2023-02-26T17:28:59.120Z,1.20
2023-02-26T17:31:27.550Z,1.30
2023-02-26T17:36:59.794Z,1.90
2023-02-26T17:39:29.162Z,1.70
2023-02-26T17:41:57.287Z,1.30
2023-02-26T17:44:29.834Z,1.83
2023-02-26T17:46:58.189Z,2.77
2023-02-26T17:49:30.453Z,2.17
2023-02-26T17:52:00.032Z,3.17
2023-02-26T17:54:30.470Z,4.47
2023-02-26T17:57:00.629Z,6.87
2023-02-26T17:59:28.783Z,4.17
2023-02-26T18:02:04.951Z,4.53
2023-02-26T18:04:35.112Z,5.00
2023-02-26T18:07:04.701Z,4.23
2023-02-26T18:09:32.893Z,5.33
2023-02-26T18:12:00.975Z,5.73
2023-02-26T18:14:29.044Z,6.63
2023-02-26T18:16:57.347Z,8.67
2023-02-26T18:19:25.425Z,14.60
2023-02-26T18:21:59.667Z,22.90
2023-02-26T18:24:33.177Z,25.83
2023-02-26T18:27:04.453Z,26.30
2023-02-26T18:29:36.387Z,24.80
2023-02-26T18:32:05.097Z,23.90
2023-02-26T18:34:33.278Z,21.97
2023-02-26T18:37:03.780Z,20.33
2023-02-26T18:39:37.709Z,17.63
2023-02-26T18:42:06.175Z,17.03
2023-02-26T18:44:34.256Z,14.20
2023-02-26T18:47:02.426Z,15.70
2023-02-26T18:49:31.535Z,15.40
2023-02-26T18:52:00.484Z,15.30
2023-02-26T18:54:30.460Z,16.07
2023-02-26T18:57:02.524Z,16.23
2023-02-26T18:59:31.990Z,17.63
2023-02-26T19:02:02.956Z,16.27
2023-02-26T19:04:32.937Z,15.50
2023-02-26T19:07:01.124Z,12.57
2023-02-26T19:09:29.566Z,13.90
2023-02-26T19:11:59.324Z,13.93
2023-02-26T19:14:27.596Z,11.30
2023-02-26T19:16:56.061Z,13.73
2023-02-26T19:19:40.152Z,12.67
2023-02-26T19:22:37.622Z,12.27
2023-02-26T19:25:11.501Z,12.73
2023-02-26T19:27:45.017Z,10.73
2023-02-26T19:30:14.832Z,9.83
2023-02-26T19:32:46.495Z,9.80
2023-02-26T19:35:17.215Z,8.47
2023-02-26T19:37:47.946Z,8.67
2023-02-26T19:40:20.487Z,7.90
2023-02-26T19:42:51.065Z,7.77
2023-02-26T19:45:21.440Z,7.97
2023-02-26T19:47:52.417Z,7.80
2023-02-26T19:50:22.713Z,7.43
2023-02-26T19:52:52.252Z,6.93
2023-02-26T19:55:22.477Z,6.97
2023-02-26T19:57:57.664Z,7.43
2023-02-26T20:00:27.082Z,6.97
2023-02-26T20:02:55.829Z,6.53
2023-02-26T20:05:24.590Z,6.53
2023-02-26T20:07:58.968Z,6.90
2023-02-26T20:10:32.049Z,6.60
2023-02-26T20:13:03.658Z,6.43
2023-02-26T20:15:31.760Z,7.63
2023-02-26T20:18:02.222Z,7.77
2023-02-26T20:20:35.812Z,6.37
2023-02-26T20:23:09.298Z,6.87
2023-02-26T20:25:57.711Z,7.33
2023-02-26T20:28:27.562Z,8.03
2023-02-26T20:30:56.356Z,9.30
2023-02-26T20:33:25.247Z,8.80
2023-02-26T20:35:55.462Z,7.87
2023-02-26T20:38:24.336Z,8.00
2023-02-26T20:40:56.122Z,7.63
2023-02-26T20:43:28.148Z,9.30
2023-02-26T20:46:03.683Z,6.77
2023-02-26T20:48:32.937Z,7.93
2023-02-26T20:51:07.836Z,7.77
2023-02-26T20:53:38.298Z,7.80
2023-02-26T20:56:07.644Z,8.23
2023-02-26T20:58:40.199Z,8.07
2023-02-26T21:01:08.498Z,7.63
2023-02-26T21:03:40.004Z,7.93
2023-02-26T21:06:08.360Z,8.10
2023-02-26T21:08:36.574Z,8.53
2023-02-26T21:11:04.828Z,7.37
2023-02-26T21:13:33.393Z,7.47
2023-02-26T21:16:04.833Z,10.70
2023-02-26T21:18:33.561Z,11.03
2023-02-26T21:21:05.108Z,11.30
2023-02-26T21:23:33.422Z,9.67
2023-02-26T21:26:01.572Z,9.20
2023-02-26T21:28:30.274Z,9.00
2023-02-26T21:30:59.292Z,8.20
2023-02-26T21:33:29.441Z,6.97
2023-02-26T21:35:57.918Z,7.10
2023-02-26T21:38:26.625Z,7.23
2023-02-26T21:41:01.328Z,6.80
2023-02-26T21:43:29.523Z,7.47
2023-02-26T21:45:57.968Z,7.53
2023-02-26T21:48:26.576Z,7.00
2023-02-26T21:50:56.689Z,6.90
2023-02-26T21:53:25.160Z,6.67
2023-02-26T21:55:53.657Z,6.80
2023-02-26T21:58:21.950Z,6.40
2023-02-26T22:00:50.364Z,6.37
2023-02-26T22:03:19.049Z,5.97
2023-02-26T22:05:47.462Z,5.30
2023-02-26T22:08:17.109Z,6.07
2023-02-26T22:10:46.585Z,6.93
2023-02-26T22:13:15.169Z,6.20
2023-02-26T22:15:43.503Z,6.57
2023-02-26T22:18:11.961Z,5.80
2023-02-26T22:20:40.457Z,6.70
2023-02-26T22:23:08.539Z,6.57
2023-02-26T22:25:38.209Z,6.87
2023-02-26T22:28:06.687Z,6.07
2023-02-26T22:30:34.840Z,5.53
2023-02-26T22:33:05.962Z,5.20
2023-02-26T22:35:34.138Z,5.63
2023-02-26T22:38:02.332Z,5.53
2023-02-26T22:40:30.551Z,5.17
2023-02-26T22:43:00.336Z,6.27
2023-02-26T22:45:28.493Z,5.37
2023-02-26T22:47:56.821Z,6.40
2023-02-26T22:50:25.120Z,5.63
2023-02-26T22:52:53.405Z,6.20
2023-02-26T22:55:21.708Z,5.57
2023-02-26T22:57:49.768Z,5.57
2023-02-26T23:00:20.851Z,6.43
2023-02-26T23:02:50.351Z,6.47
2023-02-26T23:05:20.454Z,5.10
2023-02-26T23:07:49.276Z,4.27
2023-02-26T23:10:21.603Z,3.77
2023-02-26T23:12:49.814Z,5.00
2023-02-26T23:15:19.738Z,4.23
2023-02-26T23:17:48.054Z,4.83
2023-02-26T23:20:16.978Z,4.70
2023-02-26T23:22:45.141Z,5.33
2023-02-26T23:25:13.577Z,5.37
2023-02-26T23:27:41.908Z,5.73
2023-02-26T23:30:12.156Z,6.17
2023-02-26T23:32:41.805Z,5.40
2023-02-26T23:35:10.759Z,5.50
2023-02-26T23:37:39.042Z,5.77
2023-02-26T23:40:08.591Z,4.90
2023-02-26T23:42:36.781Z,5.37
2023-02-26T23:45:05.194Z,5.37
2023-02-26T23:47:33.390Z,5.63
2023-02-26T23:50:02.858Z,6.13
2023-02-26T23:52:31.197Z,6.33
2023-02-26T23:54:59.494Z,6.50
2023-02-26T23:57:28.098Z,6.60
2023-02-26T23:59:56.350Z,6.60
